Time;durP1;ratioP1;P1;durP2;ratioP2;P2;SDS_P1;SDS_P2;PMS_P1;PMS_P2;Temp;Humidity;BMP_temperature;BMP_pressure;BME280_temperature;BME280_humidity;BME280_pressure;Samples;Min_cycle;Max_cycle;Signal;HPM_P1;HPM_P2
2023/01/21 00:01:49;;;;;;;;;;;;;;;;;;5097525;28;19908;-68
2023/01/21 00:04:15;;;;;;;;;;;;;;;;;;5095727;28;19974;-68
2023/01/21 00:06:41;;;;;;;;;;;;;;;;;;5097433;28;19915;-67
2023/01/21 00:09:06;;;;;;;;;;;;;;;;;;5097402;28;20282;-68
2023/01/21 00:11:32;;;;;;;;;;;;;;;;;;5096923;28;19908;-68
2023/01/21 00:13:58;;;;;;;;;;;;;;;;;;5096076;28;19957;-68
2023/01/21 00:16:24;;;;;;;;;;;;;;;;;;5095875;28;19955;-68
2023/01/21 00:18:50;;;;;;;;;;;;;;;;;;5095268;28;19920;-66
2023/01/21 00:21:16;;;;;;;;;;;;;;;;;;5096058;28;19915;-67
2023/01/21 00:23:42;;;;;;;;;;;;;;;;;;5095855;28;19908;-68
2023/01/21 00:26:08;;;;;;;;;;;;;;;;;;5096824;28;20020;-67
2023/01/21 00:28:34;;;;;;;;;;;;;;;;;;5095771;28;19908;-67
2023/01/21 00:31:00;;;;;;;;;;;;;;;;;;5095710;28;19915;-67
2023/01/21 00:33:26;;;;;;;;;;;;;;;;;;5095231;28;19923;-67
2023/01/21 00:35:52;;;;;;;;;;;;;;;;;;5096902;28;19908;-66
2023/01/21 00:38:18;;;;;;;;;;;;;;;;;;5095084;28;19942;-66
2023/01/21 00:40:44;;;;;;;;;;;;;;;;;;5096784;28;19954;-67
2023/01/21 00:43:10;;;;;;;;;;;;;;;;;;5096713;28;19908;-66
2023/01/21 00:45:36;;;;;;;;;;;;;;;;;;5095109;28;19981;-67
2023/01/21 00:48:01;;;;;;;;;;;;;;;;;;5096795;28;19950;-67
2023/01/21 00:50:27;;;;;;;;;;;;;;;;;;5096116;28;19908;-68
2023/01/21 00:52:53;;;;;;;;;;;;;;;;;;5096153;28;19908;-67
2023/01/21 00:55:19;;;;;;;;;;;;;;;;;;5096587;28;19908;-67
2023/01/21 00:57:45;;;;;;;;;;;;;;;;;;5096327;28;19970;-67
2023/01/21 01:00:12;;;;;;;;;;;;;;;;;;5096053;28;19958;-67
2023/01/21 01:02:37;;;;;;;;;;;;;;;;;;5096636;28;20045;-67
2023/01/21 01:05:04;;;;;;;;;;;;;;;;;;5095102;28;19981;-67
2023/01/21 01:07:30;;;;;;;;;;;;;;;;;;5095936;28;19981;-67
2023/01/21 01:09:56;;;;;;;;;;;;;;;;;;5096330;28;19912;-67
2023/01/21 01:12:22;;;;;;;;;;;;;;;;;;5096193;28;19916;-67
2023/01/21 01:14:48;;;;;;;;;;;;;;;;;;5095829;28;19915;-67
2023/01/21 01:17:14;;;;;;;;;;;;;;;;;;5094580;28;19951;-67
2023/01/21 01:19:40;;;;;;;;;;;;;;;;;;5096025;28;19962;-67
2023/01/21 01:22:06;;;;;;;;;;;;;;;;;;5095697;28;19919;-67
2023/01/21 01:24:32;;;;;;;;;;;;;;;;;;5094900;28;19908;-67
2023/01/21 01:26:58;;;;;;;;;;;;;;;;;;5096271;28;19908;-68
2023/01/21 01:29:24;;;;;;;;;;;;;;;;;;5095415;28;19915;-68
2023/01/21 01:31:50;;;;;;;;;;;;;;;;;;5095748;28;20002;-68
2023/01/21 01:34:16;;;;;;;;;;;;;;;;;;5095800;28;19987;-67
2023/01/21 01:36:42;;;;;;;;;;;;;;;;;;5095272;28;19912;-67
2023/01/21 01:39:08;;;;;;;;;;;;;;;;;;5095548;28;19923;-67
2023/01/21 01:41:34;;;;;;;;;;;;;;;;;;5095211;28;20003;-67
2023/01/21 01:44:00;;;;;;;;;;;;;;;;;;5095565;28;19915;-67
2023/01/21 01:46:26;;;;;;;;;;;;;;;;;;5095503;28;19912;-67
2023/01/21 01:48:52;;;;;;;;;;;;;;;;;;5095120;28;20356;-67
2023/01/21 01:51:18;;;;;;;;;;;;;;;;;;5095358;28;19908;-67
2023/01/21 01:53:43;;;;;;;;;;;;;;;;;;5095306;28;19974;-68
2023/01/21 01:56:09;;;;;;;;;;;;;;;;;;5095065;28;19908;-67
2023/01/21 01:58:35;;;;;;;;;;;;;;;;;;5095211;28;19967;-68
2023/01/21 02:01:01;;;;;;;;;;;;;;;;;;5095239;28;19962;-68
2023/01/21 02:03:48;;;;;;;;;;;;;;;;;;5094149;28;19907;-67
2023/01/21 02:06:14;;;;;;;;;;;;;;;;;;5095545;28;19912;-67
2023/01/21 02:08:39;;;;;;;;;;;;;;;;;;5095072;28;20013;-66
2023/01/21 02:11:05;;;;;;;;;;;;;;;;;;5094708;28;20011;-67
2023/01/21 02:13:32;;;;;;;;;;;;;;;;;;5094988;28;19908;-68
2023/01/21 02:15:58;;;;;;;;;;;;;;;;;;5095040;28;19939;-67
2023/01/21 02:18:24;;;;;;;;;;;;;;;;;;5094304;28;19967;-67
2023/01/21 02:20:49;;;;;;;;;;;;;;;;;;5093543;28;19915;-66
2023/01/21 02:23:15;;;;;;;;;;;;;;;;;;5094858;28;19977;-67
2023/01/21 02:25:41;;;;;;;;;;;;;;;;;;5094384;28;19908;-67
2023/01/21 02:28:07;;;;;;;;;;;;;;;;;;5094796;28;19958;-67
2023/01/21 02:30:33;;;;;;;;;;;;;;;;;;5093460;28;19912;-67
2023/01/21 02:32:59;;;;;;;;;;;;;;;;;;5094219;28;19915;-67
2023/01/21 02:35:25;;;;;;;;;;;;;;;;;;5094615;28;19946;-67
2023/01/21 02:37:51;;;;;;;;;;;;;;;;;;5094105;28;20336;-66
2023/01/21 02:40:17;;;;;;;;;;;;;;;;;;5094517;28;19912;-66
2023/01/21 02:42:43;;;;;;;;;;;;;;;;;;5094446;28;19953;-66
2023/01/21 02:45:09;;;;;;;;;;;;;;;;;;5093983;28;19908;-68
2023/01/21 02:47:35;;;;;;;;;;;;;;;;;;5094424;28;19912;-67
2023/01/21 02:50:01;;;;;;;;;;;;;;;;;;5093067;28;19909;-67
2023/01/21 02:52:27;;;;;;;;;;;;;;;;;;5092574;28;19908;-67
2023/01/21 02:54:53;;;;;;;;;;;;;;;;;;5092994;28;19961;-67
2023/01/21 02:57:19;;;;;;;;;;;;;;;;;;5092923;28;19952;-67
2023/01/21 02:59:45;;;;;;;;;;;;;;;;;;5093904;28;19916;-67
2023/01/21 03:02:11;;;;;;;;;;;;;;;;;;5094496;28;19908;-67
2023/01/21 03:04:36;;;;;;;;;;;;;;;;;;5094089;28;20018;-67
2023/01/21 03:07:02;;;;;;;;;;;;;;;;;;5092452;28;19908;-67
2023/01/21 03:09:28;;;;;;;;;;;;;;;;;;5094088;28;19969;-67
2023/01/21 03:11:54;;;;;;;;;;;;;;;;;;5094021;28;19908;-67
2023/01/21 03:17:05;;;;;;;;;;;;;;;;;;5094169;28;19919;-66
2023/01/21 03:19:31;;;;;;;;;;;;;;;;;;5093722;28;19920;-67
2023/01/21 03:21:57;;;;;;;;;;;;;;;;;;5093620;28;20364;-67
2023/01/21 03:24:23;;;;;;;;;;;;;;;;;;5092623;28;19914;-67
2023/01/21 03:26:49;;;;;;;;;;;;;;;;;;5094193;28;19908;-67
2023/01/21 03:29:15;;;;;;;;;;;;;;;;;;5093650;28;19912;-68
2023/01/21 03:31:41;;;;;;;;;;;;;;;;;;5093890;28;19908;-67
2023/01/21 03:34:07;;;;;;;;;;;;;;;;;;5093340;28;19915;-67
2023/01/21 03:36:33;;;;;;;;;;;;;;;;;;5093870;28;19908;-67
2023/01/21 03:38:59;;;;;;;;;;;;;;;;;;5093774;28;20395;-67
2023/01/21 03:41:25;;;;;;;;;;;;;;;;;;5092136;28;19916;-67
2023/01/21 03:43:51;;;;;;;;;;;;;;;;;;5093796;28;19915;-68
2023/01/21 03:46:17;;;;;;;;;;;;;;;;;;5093782;28;19908;-67
2023/01/21 03:48:43;;;;;;;;;;;;;;;;;;5093652;28;19961;-67
2023/01/21 03:51:09;;;;;;;;;;;;;;;;;;5092397;28;19912;-66
2023/01/21 03:53:35;;;;;;;;;;;;;;;;;;5092379;28;19915;-66
2023/01/21 03:56:01;;;;;;;;;;;;;;;;;;5093284;28;19951;-66
2023/01/21 03:58:27;;;;;;;;;;;;;;;;;;5093587;28;20028;-66
2023/01/21 04:00:53;;;;;;;;;;;;;;;;;;5092330;28;19978;-67
2023/01/21 04:03:18;;;;;;;;;;;;;;;;;;5093138;28;19912;-66
2023/01/21 04:05:44;;;;;;;;;;;;;;;;;;5093812;28;19947;-67
2023/01/21 04:08:10;;;;;;;;;;;;;;;;;;5093527;28;19908;-68
2023/01/21 04:10:36;;;;;;;;;;;;;;;;;;5093059;28;19953;-68
2023/01/21 04:13:02;;;;;;;;;;;;;;;;;;5093509;28;19953;-68
2023/01/21 04:15:28;;;;;;;;;;;;;;;;;;5093513;28;19958;-67
2023/01/21 04:17:54;;;;;;;;;;;;;;;;;;5092834;28;19920;-67
2023/01/21 04:20:20;;;;;;;;;;;;;;;;;;5093481;28;19908;-67
2023/01/21 04:22:46;;;;;;;;;;;;;;;;;;5093466;28;19951;-68
2023/01/21 04:25:12;;;;;;;;;;;;;;;;;;5093243;28;19908;-68
2023/01/21 04:27:38;;;;;;;;;;;;;;;;;;5097090;28;19908;-68
2023/01/21 04:30:04;;;;;;;;;;;;;;;;;;5097357;28;20006;-68
2023/01/21 04:32:30;;;;;;;;;;;;;;;;;;5096597;28;19908;-68
2023/01/21 04:34:56;;;;;;;;;;;;;;;;;;5096929;28;19915;-68
2023/01/21 04:37:21;;;;;;;;;;;;;;;;;;5096580;28;19912;-68
2023/01/21 04:39:47;;;;;;;;;;;;;;;;;;5096912;28;19942;-68
2023/01/21 04:42:13;;;;;;;;;;;;;;;;;;5096769;28;19909;-66
2023/01/21 04:44:39;;;;;;;;;;;;;;;;;;5096294;28;19954;-67
2023/01/21 04:47:05;;;;;;;;;;;;;;;;;;5096703;28;19919;-67
2023/01/21 04:49:31;;;;;;;;;;;;;;;;;;5095465;28;19908;-67
2023/01/21 04:51:57;;;;;;;;;;;;;;;;;;5096137;28;19908;-68
2023/01/21 04:54:23;;;;;;;;;;;;;;;;;;5096493;28;19916;-67
2023/01/21 04:56:49;;;;;;;;;;;;;;;;;;5096563;28;19995;-67
2023/01/21 04:59:15;;;;;;;;;;;;;;;;;;5096042;28;19942;-67
2023/01/21 05:01:41;;;;;;;;;;;;;;;;;;5096658;28;19912;-68
2023/01/21 05:04:07;;;;;;;;;;;;;;;;;;5095079;28;20279;-68
2023/01/21 05:06:33;;;;;;;;;;;;;;;;;;5095923;28;19909;-67
2023/01/21 05:08:59;;;;;;;;;;;;;;;;;;5096251;28;20326;-67
2023/01/21 05:11:25;;;;;;;;;;;;;;;;;;5096255;28;19908;-67
2023/01/21 05:13:51;;;;;;;;;;;;;;;;;;5094588;28;19908;-67
2023/01/21 05:16:17;;;;;;;;;;;;;;;;;;5096079;28;19909;-67
2023/01/21 05:18:44;;;;;;;;;;;;;;;;;;5095848;28;20026;-67
2023/01/21 05:21:10;;;;;;;;;;;;;;;;;;5095608;28;19912;-67
2023/01/21 05:23:36;;;;;;;;;;;;;;;;;;5095908;28;19909;-67
2023/01/21 05:26:02;;;;;;;;;;;;;;;;;;5095904;28;19908;-68
2023/01/21 05:28:28;;;;;;;;;;;;;;;;;;5095446;28;19908;-67
2023/01/21 05:30:54;;;;;;;;;;;;;;;;;;5095813;28;19915;-67
2023/01/21 05:33:24;;;;;;;;;;;;;;;;;;5094492;28;20362;-67
2023/01/21 05:35:50;;;;;;;;;;;;;;;;;;5095612;28;19915;-67
2023/01/21 05:38:16;;;;;;;;;;;;;;;;;;5095608;28;19926;-66
2023/01/21 05:40:42;;;;;;;;;;;;;;;;;;5095248;28;19919;-66
2023/01/21 05:43:08;;;;;;;;;;;;;;;;;;5095556;28;19911;-66
2023/01/21 05:45:34;;;;;;;;;;;;;;;;;;5094438;28;19908;-66
2023/01/21 05:48:00;;;;;;;;;;;;;;;;;;5095229;28;19946;-67
2023/01/21 05:50:26;;;;;;;;;;;;;;;;;;5094241;28;19908;-68
2023/01/21 05:52:52;;;;;;;;;;;;;;;;;;5094184;28;19908;-66
2023/01/21 05:55:18;;;;;;;;;;;;;;;;;;5095094;28;19908;-66
2023/01/21 05:57:44;;;;;;;;;;;;;;;;;;5095314;28;19908;-68
2023/01/21 06:00:10;;;;;;;;;;;;;;;;;;5095292;28;19946;-66
2023/01/21 06:02:36;;;;;;;;;;;;;;;;;;5094932;28;19965;-67
2023/01/21 06:05:02;;;;;;;;;;;;;;;;;;5095286;28;19908;-67
2023/01/21 06:07:28;;;;;;;;;;;;;;;;;;5095112;28;19908;-67
2023/01/21 06:09:53;;;;;;;;;;;;;;;;;;5094764;28;19984;-67
2023/01/21 06:12:19;;;;;;;;;;;;;;;;;;5095110;28;19954;-67
2023/01/21 06:14:45;;;;;;;;;;;;;;;;;;5095062;28;19916;-68
2023/01/21 06:17:11;;;;;;;;;;;;;;;;;;5093200;28;19931;-68
2023/01/21 06:19:37;;;;;;;;;;;;;;;;;;5094960;28;19916;-68
2023/01/21 06:22:03;;;;;;;;;;;;;;;;;;5093668;28;19999;-68
2023/01/21 06:24:29;;;;;;;;;;;;;;;;;;5094592;28;20360;-67
2023/01/21 06:26:55;;;;;;;;;;;;;;;;;;5095367;28;20361;-68
2023/01/21 06:29:21;;;;;;;;;;;;;;;;;;5094807;28;19908;-67
2023/01/21 06:31:47;;;;;;;;;;;;;;;;;;5094335;28;19961;-67
2023/01/21 06:34:13;;;;;;;;;;;;;;;;;;5094649;28;19915;-67
2023/01/21 06:36:42;;;;;;;;;;;;;;;;;;5094572;28;19908;-66
2023/01/21 06:39:11;;;;;;;;;;;;;;;;;;5094122;28;19923;-67
2023/01/21 06:41:37;;;;;;;;;;;;;;;;;;5093297;28;19912;-67
2023/01/21 06:44:03;;;;;;;;;;;;;;;;;;5094034;28;20311;-67
2023/01/21 06:46:28;;;;;;;;;;;;;;;;;;5094619;28;19950;-67
2023/01/21 06:48:54;;;;;;;;;;;;;;;;;;5094009;28;20375;-68
2023/01/21 06:51:20;;;;;;;;;;;;;;;;;;5094012;28;19951;-67
2023/01/21 06:53:46;;;;;;;;;;;;;;;;;;5094379;28;19912;-67
2023/01/21 06:56:12;;;;;;;;;;;;;;;;;;5093073;28;19948;-67
2023/01/21 06:58:38;;;;;;;;;;;;;;;;;;5093809;28;19923;-67
2023/01/21 07:01:04;;;;;;;;;;;;;;;;;;5092987;28;19958;-67
2023/01/21 07:03:30;;;;;;;;;;;;;;;;;;5094258;28;19908;-67
2023/01/21 07:05:56;;;;;;;;;;;;;;;;;;5093774;28;19916;-67
2023/01/21 07:08:22;;;;;;;;;;;;;;;;;;5092857;28;19955;-67
2023/01/21 07:10:48;;;;;;;;;;;;;;;;;;5094111;28;19915;-67
2023/01/21 07:13:14;;;;;;;;;;;;;;;;;;5093699;28;20391;-67
2023/01/21 07:15:40;;;;;;;;;;;;;;;;;;5092753;28;19908;-67
2023/01/21 07:18:06;;;;;;;;;;;;;;;;;;5093757;28;19923;-66
2023/01/21 07:20:32;;;;;;;;;;;;;;;;;;5093565;28;19962;-67
2023/01/21 07:22:57;;;;;;;;;;;;;;;;;;5092717;28;20322;-67
2023/01/21 07:25:24;;;;;;;;;;;;;;;;;;5093931;28;20322;-67
2023/01/21 07:27:50;;;;;;;;;;;;;;;;;;5093472;28;19995;-68
2023/01/21 07:30:16;;;;;;;;;;;;;;;;;;5094029;28;20415;-68
2023/01/21 07:32:42;;;;;;;;;;;;;;;;;;5092610;28;19908;-67
2023/01/21 07:35:08;;;;;;;;;;;;;;;;;;5092160;28;19915;-67
2023/01/21 07:37:34;;;;;;;;;;;;;;;;;;5092665;28;19908;-67
2023/01/21 07:40:00;;;;;;;;;;;;;;;;;;5093786;28;19916;-67
2023/01/21 07:42:26;;;;;;;;;;;;;;;;;;5093425;28;19958;-67
2023/01/21 07:44:52;;;;;;;;;;;;;;;;;;5092467;28;20413;-66
2023/01/21 07:47:17;;;;;;;;;;;;;;;;;;5092054;28;19912;-67
2023/01/21 07:49:43;;;;;;;;;;;;;;;;;;5093748;28;19909;-67
2023/01/21 07:52:09;;;;;;;;;;;;;;;;;;5093710;28;20054;-67
2023/01/21 07:54:35;;;;;;;;;;;;;;;;;;5093342;28;19916;-67
2023/01/21 07:57:01;;;;;;;;;;;;;;;;;;5093706;28;19908;-67
2023/01/21 07:59:27;;;;;;;;;;;;;;;;;;5092239;28;19923;-68
2023/01/21 08:01:53;;;;;;;;;;;;;;;;;;5095029;28;19908;-67
2023/01/21 08:04:19;;;;;;;;;;;;;;;;;;5097794;28;19908;-67
2023/01/21 08:06:45;;;;;;;;;;;;;;;;;;5097479;28;19957;-67
2023/01/21 08:09:11;;;;;;;;;;;;;;;;;;5097226;28;19908;-66
2023/01/21 08:11:37;;;;;;;;;;;;;;;;;;5097426;28;19995;-67
2023/01/21 08:14:03;;;;;;;;;;;;;;;;;;5096021;28;20357;-68
2023/01/21 08:16:29;;;;;;;;;;;;;;;;;;5096927;28;19966;-67
2023/01/21 08:18:55;;;;;;;;;;;;;;;;;;5095758;28;19969;-67
2023/01/21 08:21:21;;;;;;;;;;;;;;;;;;5097259;28;20284;-67
2023/01/21 08:23:46;;;;;;;;;;;;;;;;;;5095467;28;20278;-67
2023/01/21 08:26:12;;;;;;;;;;;;;;;;;;5095830;28;19931;-67
2023/01/21 08:28:38;;;;;;;;;;;;;;;;;;5097052;28;19908;-68
2023/01/21 08:31:04;;;;;;;;;;;;;;;;;;5096572;28;19961;-67
2023/01/21 08:33:30;;;;;;;;;;;;;;;;;;5096994;28;19908;-68
2023/01/21 08:35:56;;;;;;;;;;;;;;;;;;5096926;28;19915;-67
2023/01/21 08:38:22;;;;;;;;;;;;;;;;;;5096477;28;20386;-68
2023/01/21 08:40:48;;;;;;;;;;;;;;;;;;5097137;28;20435;-67
2023/01/21 08:43:14;;;;;;;;;;;;;;;;;;5096822;28;20356;-67
2023/01/21 08:45:40;;;;;;;;;;;;;;;;;;5094999;28;19908;-67
2023/01/21 08:48:06;;;;;;;;;;;;;;;;;;5095402;28;19959;-66
2023/01/21 08:50:32;;;;;;;;;;;;;;;;;;5096183;28;19908;-67
2023/01/21 08:52:58;;;;;;;;;;;;;;;;;;5096586;28;19908;-66
2023/01/21 08:55:25;;;;;;;;;;;;;;;;;;5096801;28;20012;-66
2023/01/21 08:57:52;;;;;;;;;;;;;;;;;;5096034;28;20353;-68
2023/01/21 09:00:18;;;;;;;;;;;;;;;;;;5095231;28;19912;-67
2023/01/21 09:02:44;;;;;;;;;;;;;;;;;;5096421;28;19943;-67
2023/01/21 09:05:10;;;;;;;;;;;;;;;;;;5096108;28;19954;-67
2023/01/21 09:07:36;;;;;;;;;;;;;;;;;;5096308;28;19912;-67
2023/01/21 09:10:02;;;;;;;;;;;;;;;;;;5094927;28;19912;-67
2023/01/21 09:12:28;;;;;;;;;;;;;;;;;;5095542;28;19908;-68
2023/01/21 09:14:53;;;;;;;;;;;;;;;;;;5096187;28;19958;-67
2023/01/21 09:17:21;;;;;;;;;;;;;;;;;;5095964;28;19908;-67
2023/01/21 09:19:47;;;;;;;;;;;;;;;;;;5095643;28;19920;-68
2023/01/21 09:22:13;;;;;;;;;;;;;;;;;;5096474;28;19908;-67
2023/01/21 09:24:39;;;;;;;;;;;;;;;;;;5095990;28;19915;-68
2023/01/21 09:27:05;;;;;;;;;;;;;;;;;;5095530;28;19912;-68
2023/01/21 09:29:31;;;;;;;;;;;;;;;;;;5095878;28;19909;-67
2023/01/21 09:31:57;;;;;;;;;;;;;;;;;;5094620;28;20041;-67
2023/01/21 09:34:23;;;;;;;;;;;;;;;;;;5095294;28;19912;-67
2023/01/21 09:36:49;;;;;;;;;;;;;;;;;;5095799;28;19953;-67
2023/01/21 09:39:15;;;;;;;;;;;;;;;;;;5095708;28;19916;-67
2023/01/21 09:41:40;;;;;;;;;;;;;;;;;;5095120;28;19914;-67
2023/01/21 09:44:06;;;;;;;;;;;;;;;;;;5094244;28;19908;-67
2023/01/21 09:46:32;;;;;;;;;;;;;;;;;;5095561;28;19953;-67
2023/01/21 09:48:58;;;;;;;;;;;;;;;;;;5093792;28;20006;-68
2023/01/21 09:51:24;;;;;;;;;;;;;;;;;;5095525;28;19908;-68
2023/01/21 09:53:50;;;;;;;;;;;;;;;;;;5095028;28;19962;-68
2023/01/21 09:56:16;;;;;;;;;;;;;;;;;;5094090;28;20003;-67
2023/01/21 09:58:42;;;;;;;;;;;;;;;;;;5094129;28;19915;-66
2023/01/21 10:01:08;;;;;;;;;;;;;;;;;;5095164;28;19915;-68
2023/01/21 10:03:34;;;;;;;;;;;;;;;;;;5095258;28;20007;-68
2023/01/21 10:06:00;;;;;;;;;;;;;;;;;;5093970;28;20002;-66
2023/01/21 10:08:26;;;;;;;;;;;;;;;;;;5094827;28;20386;-68
2023/01/21 10:10:52;;;;;;;;;;;;;;;;;;5093880;28;19908;-66
2023/01/21 10:13:18;;;;;;;;;;;;;;;;;;5095017;28;19908;-68
2023/01/21 10:15:44;;;;;;;;;;;;;;;;;;5094620;28;19996;-67
2023/01/21 10:18:10;;;;;;;;;;;;;;;;;;5094616;28;19988;-67
2023/01/21 10:20:36;;;;;;;;;;;;;;;;;;5094855;28;20007;-68
2023/01/21 10:23:02;;;;;;;;;;;;;;;;;;5093727;28;19952;-68
2023/01/21 10:25:28;;;;;;;;;;;;;;;;;;5094801;28;19908;-68
2023/01/21 10:27:54;;;;;;;;;;;;;;;;;;5095131;28;20007;-67
2023/01/21 10:30:19;;;;;;;;;;;;;;;;;;5093102;28;19908;-67
2023/01/21 10:32:45;;;;;;;;;;;;;;;;;;5093377;28;19919;-67
2023/01/21 10:35:11;;;;;;;;;;;;;;;;;;5094794;28;20006;-67
2023/01/21 10:37:37;;;;;;;;;;;;;;;;;;5094197;28;19908;-67
2023/01/21 10:40:03;;;;;;;;;;;;;;;;;;5094486;28;20406;-67
2023/01/21 10:42:29;;;;;;;;;;;;;;;;;;5094507;28;19908;-67
2023/01/21 10:44:55;;;;;;;;;;;;;;;;;;5094072;28;19912;-67
2023/01/21 10:47:21;;;;;;;;;;;;;;;;;;5094408;28;19915;-67
2023/01/21 10:49:47;;;;;;;;;;;;;;;;;;5094446;28;19908;-67
2023/01/21 10:52:13;;;;;;;;;;;;;;;;;;5094071;28;20377;-66
2023/01/21 10:54:39;;;;;;;;;;;;;;;;;;5094605;28;20049;-67
2023/01/21 10:57:05;;;;;;;;;;;;;;;;;;5093870;28;19915;-66
2023/01/21 10:59:31;;;;;;;;;;;;;;;;;;5094274;28;20011;-67
2023/01/21 11:01:57;;;;;;;;;;;;;;;;;;5094174;28;19915;-67
2023/01/21 11:04:23;;;;;;;;;;;;;;;;;;5092397;28;19912;-67
2023/01/21 11:06:49;;;;;;;;;;;;;;;;;;5094515;28;19909;-68
2023/01/21 11:09:15;;;;;;;;;;;;;;;;;;5092909;28;20372;-66
2023/01/21 11:11:41;;;;;;;;;;;;;;;;;;5093631;28;19916;-67
2023/01/21 11:14:07;;;;;;;;;;;;;;;;;;5094049;28;19916;-68
2023/01/21 11:16:33;;;;;;;;;;;;;;;;;;5094000;28;19908;-68
2023/01/21 11:18:59;;;;;;;;;;;;;;;;;;5093439;28;19920;-67
2023/01/21 11:21:25;;;;;;;;;;;;;;;;;;5094003;28;19912;-68
2023/01/21 11:23:51;;;;;;;;;;;;;;;;;;5092761;28;19915;-68
2023/01/21 11:26:17;;;;;;;;;;;;;;;;;;5093525;28;19908;-69
2023/01/21 11:28:44;;;;;;;;;;;;;;;;;;5093848;28;19909;-68
2023/01/21 11:31:10;;;;;;;;;;;;;;;;;;5093905;28;19908;-67
2023/01/21 11:33:36;;;;;;;;;;;;;;;;;;5093621;28;19953;-68
2023/01/21 11:36:02;;;;;;;;;;;;;;;;;;5096096;28;20019;-68
2023/01/21 11:38:28;;;;;;;;;;;;;;;;;;5098012;28;19916;-67
2023/01/21 11:40:54;;;;;;;;;;;;;;;;;;5096277;28;19915;-67
2023/01/21 11:43:20;;;;;;;;;;;;;;;;;;5096667;28;19908;-67
2023/01/21 11:45:50;;;;;;;;;;;;;;;;;;5097906;28;19912;-67
2023/01/21 11:48:16;;;;;;;;;;;;;;;;;;5097375;28;19908;-67
2023/01/21 11:50:42;;;;;;;;;;;;;;;;;;5097775;28;19915;-68
2023/01/21 11:53:10;;;;;;;;;;;;;;;;;;5097768;28;19991;-68
2023/01/21 11:55:36;;;;;;;;;;;;;;;;;;5096043;28;20273;-68
2023/01/21 11:58:02;;;;;;;;;;;;;;;;;;5097593;28;19961;-69
2023/01/21 12:00:27;;;;;;;;;;;;;;;;;;5097178;28;19912;-66
2023/01/21 12:02:53;;;;;;;;;;;;;;;;;;5097566;28;19991;-68
2023/01/21 12:05:19;;;;;;;;;;;;;;;;;;5096170;28;19908;-67
2023/01/21 12:07:45;;;;;;;;;;;;;;;;;;5097262;28;19912;-67
2023/01/21 12:10:11;;;;;;;;;;;;;;;;;;5097714;28;19908;-67
2023/01/21 12:12:37;;;;;;;;;;;;;;;;;;5096105;28;19915;-66
2023/01/21 12:15:03;;;;;;;;;;;;;;;;;;5096953;28;19908;-68
2023/01/21 12:17:29;;;;;;;;;;;;;;;;;;5096020;28;19924;-67
2023/01/21 12:19:55;;;;;;;;;;;;;;;;;;5095920;28;19942;-67
2023/01/21 12:22:21;;;;;;;;;;;;;;;;;;5096927;28;19908;-68
2023/01/21 12:24:47;;;;;;;;;;;;;;;;;;5097237;28;19915;-68
2023/01/21 12:27:13;;;;;;;;;;;;;;;;;;5097198;28;19912;-67
2023/01/21 12:29:39;;;;;;;;;;;;;;;;;;5096735;28;20005;-68
2023/01/21 12:32:05;;;;;;;;;;;;;;;;;;5095644;28;19916;-67
2023/01/21 12:34:31;;;;;;;;;;;;;;;;;;5097132;28;19909;-67
2023/01/21 12:36:57;;;;;;;;;;;;;;;;;;5096647;28;20007;-67
2023/01/21 12:39:23;;;;;;;;;;;;;;;;;;5092567;28;19920;-67
2023/01/21 12:41:49;;;;;;;;;;;;;;;;;;5075223;28;19962;-68
2023/01/21 12:44:15;;;;;;;;;;;;;;;;;;5078141;28;19914;-67
2023/01/21 12:46:40;;;;;;;;;;;;;;;;;;5096024;28;19909;-68
2023/01/21 12:49:06;;;;;;;;;;;;;;;;;;5096093;28;19908;-68
2023/01/21 12:51:32;;;;;;;;;;;;;;;;;;5094456;28;19908;-68
2023/01/21 12:53:58;;;;;;;;;;;;;;;;;;5095215;28;19946;-67
2023/01/21 12:56:24;;;;;;;;;;;;;;;;;;5095901;28;19927;-68
2023/01/21 12:58:50;;;;;;;;;;;;;;;;;;5095095;28;19916;-68
2023/01/21 13:01:16;;;;;;;;;;;;;;;;;;5093928;28;19916;-69
2023/01/21 13:03:42;;;;;;;;;;;;;;;;;;5093994;28;19955;-68
2023/01/21 13:06:08;;;;;;;;;;;;;;;;;;5096467;28;20334;-68
2023/01/21 13:08:34;;;;;;;;;;;;;;;;;;5096354;28;19912;-68
2023/01/21 13:11:00;;;;;;;;;;;;;;;;;;5094624;28;19912;-68
2023/01/21 13:13:26;;;;;;;;;;;;;;;;;;5094987;28;19961;-68
2023/01/21 13:15:52;;;;;;;;;;;;;;;;;;5096630;28;19908;-67
2023/01/21 13:18:18;;;;;;;;;;;;;;;;;;5095424;28;20019;-67
2023/01/21 13:20:44;;;;;;;;;;;;;;;;;;5094719;28;19939;-69
2023/01/21 13:23:10;;;;;;;;;;;;;;;;;;5096024;28;19915;-68
2023/01/21 13:25:36;;;;;;;;;;;;;;;;;;5094317;28;19950;-68
2023/01/21 13:28:02;;;;;;;;;;;;;;;;;;5095985;28;19939;-68
2023/01/21 13:30:28;;;;;;;;;;;;;;;;;;5095906;28;19908;-68
2023/01/21 13:32:54;;;;;;;;;;;;;;;;;;5095377;28;19931;-68
2023/01/21 13:35:21;;;;;;;;;;;;;;;;;;5094472;28;20376;-68
2023/01/21 13:37:47;;;;;;;;;;;;;;;;;;5095724;28;20002;-68
2023/01/21 13:40:13;;;;;;;;;;;;;;;;;;5094046;28;20046;-68
2023/01/21 13:42:39;;;;;;;;;;;;;;;;;;5095635;28;19912;-68
2023/01/21 13:45:06;;;;;;;;;;;;;;;;;;5095595;28;19911;-68
2023/01/21 13:47:32;;;;;;;;;;;;;;;;;;5093828;28;20360;-67
2023/01/21 13:49:58;;;;;;;;;;;;;;;;;;5095556;28;19908;-67
2023/01/21 13:52:24;;;;;;;;;;;;;;;;;;5094166;28;19915;-68
2023/01/21 13:54:50;;;;;;;;;;;;;;;;;;5094993;28;20413;-68
2023/01/21 13:57:16;;;;;;;;;;;;;;;;;;5095275;28;19935;-68
2023/01/21 13:59:41;;;;;;;;;;;;;;;;;;5093125;28;19916;-68
2023/01/21 14:02:07;;;;;;;;;;;;;;;;;;5093619;28;19916;-68
2023/01/21 14:04:33;;;;;;;;;;;;;;;;;;5095225;28;19941;-69
2023/01/21 14:06:59;;;;;;;;;;;;;;;;;;5094894;28;20002;-68
2023/01/21 14:09:25;;;;;;;;;;;;;;;;;;5093788;28;19919;-68
2023/01/21 14:11:51;;;;;;;;;;;;;;;;;;5095071;28;19908;-69
2023/01/21 14:14:17;;;;;;;;;;;;;;;;;;5094705;28;20615;-67
2023/01/21 14:16:43;;;;;;;;;;;;;;;;;;5094962;28;19908;-67
2023/01/21 14:19:09;;;;;;;;;;;;;;;;;;5094739;28;19955;-67
2023/01/21 14:21:35;;;;;;;;;;;;;;;;;;5093263;28;19912;-67
2023/01/21 14:24:01;;;;;;;;;;;;;;;;;;5094846;28;19908;-68
2023/01/21 14:26:27;;;;;;;;;;;;;;;;;;5095157;28;19936;-68
2023/01/21 14:28:53;;;;;;;;;;;;;;;;;;5094335;28;20396;-68
2023/01/21 14:31:19;;;;;;;;;;;;;;;;;;5094738;28;19908;-68
2023/01/21 14:33:45;;;;;;;;;;;;;;;;;;5094671;28;19914;-68
2023/01/21 14:36:11;;;;;;;;;;;;;;;;;;5092995;28;20365;-68
2023/01/21 14:38:38;;;;;;;;;;;;;;;;;;5093256;28;20360;-68
2023/01/21 14:41:04;;;;;;;;;;;;;;;;;;5094590;28;20008;-68
2023/01/21 14:43:30;;;;;;;;;;;;;;;;;;5094381;28;19908;-68
2023/01/21 14:45:56;;;;;;;;;;;;;;;;;;5094490;28;19914;-68
2023/01/21 14:48:22;;;;;;;;;;;;;;;;;;5094427;28;19908;-68
2023/01/21 14:50:48;;;;;;;;;;;;;;;;;;5092735;28;19951;-68
2023/01/21 14:53:14;;;;;;;;;;;;;;;;;;5093123;28;19953;-68
2023/01/21 14:55:40;;;;;;;;;;;;;;;;;;5094387;28;19909;-68
2023/01/21 14:58:06;;;;;;;;;;;;;;;;;;5093886;28;20003;-68
2023/01/21 15:00:32;;;;;;;;;;;;;;;;;;5094219;28;19912;-68
2023/01/21 15:02:58;;;;;;;;;;;;;;;;;;5094223;28;19995;-67
2023/01/21 15:05:24;;;;;;;;;;;;;;;;;;5093787;28;19908;-67
2023/01/21 15:07:50;;;;;;;;;;;;;;;;;;5094181;28;19908;-67
2023/01/21 15:10:16;;;;;;;;;;;;;;;;;;5093449;28;20007;-70
2023/01/21 15:12:42;;;;;;;;;;;;;;;;;;5092906;28;19962;-67
2023/01/21 15:15:08;;;;;;;;;;;;;;;;;;5094100;28;19908;-67
2023/01/21 15:17:34;;;;;;;;;;;;;;;;;;5093393;28;19926;-68
2023/01/21 15:20:02;;;;;;;;;;;;;;;;;;5093135;28;20233;-68
2023/01/21 15:22:27;;;;;;;;;;;;;;;;;;5094077;28;20383;-67
2023/01/21 15:24:53;;;;;;;;;;;;;;;;;;5092239;28;20397;-69
2023/01/21 15:27:19;;;;;;;;;;;;;;;;;;5094003;28;19908;-68
2023/01/21 15:29:45;;;;;;;;;;;;;;;;;;5093925;28;19912;-68
2023/01/21 15:32:11;;;;;;;;;;;;;;;;;;5092237;28;19908;-68
2023/01/21 15:34:37;;;;;;;;;;;;;;;;;;5093885;28;19908;-67
2023/01/21 15:37:03;;;;;;;;;;;;;;;;;;5092541;28;19957;-67
2023/01/21 15:39:29;;;;;;;;;;;;;;;;;;5093288;28;19961;-68
2023/01/21 15:41:55;;;;;;;;;;;;;;;;;;5094038;28;19912;-68
2023/01/21 15:44:21;;;;;;;;;;;;;;;;;;5093811;28;19912;-68
2023/01/21 15:46:47;;;;;;;;;;;;;;;;;;5093473;28;19912;-68
2023/01/21 15:49:13;;;;;;;;;;;;;;;;;;5094350;28;19915;-68
2023/01/21 15:51:39;;;;;;;;;;;;;;;;;;5093731;28;20363;-68
2023/01/21 15:54:05;;;;;;;;;;;;;;;;;;5091984;28;20372;-68
2023/01/21 15:56:31;;;;;;;;;;;;;;;;;;5093821;28;19991;-68
2023/01/21 15:58:57;;;;;;;;;;;;;;;;;;5093826;28;19942;-68
2023/01/21 16:01:25;;;;;;;;;;;;;;;;;;5093314;28;19930;-68
2023/01/21 16:03:51;;;;;;;;;;;;;;;;;;5093632;28;19909;-68
2023/01/21 16:06:17;;;;;;;;;;;;;;;;;;5093624;28;19962;-67
2023/01/21 16:08:43;;;;;;;;;;;;;;;;;;5093154;28;19912;-67
2023/01/21 16:11:09;;;;;;;;;;;;;;;;;;5093554;28;19915;-68
2023/01/21 16:13:35;;;;;;;;;;;;;;;;;;5093213;28;19915;-69
2023/01/21 16:16:01;;;;;;;;;;;;;;;;;;5092182;28;19915;-70
2023/01/21 16:18:27;;;;;;;;;;;;;;;;;;5091937;28;19927;-69
2023/01/21 16:20:53;;;;;;;;;;;;;;;;;;5093134;28;19918;-68
2023/01/21 16:23:19;;;;;;;;;;;;;;;;;;5097271;28;20011;-68
2023/01/21 16:25:44;;;;;;;;;;;;;;;;;;5097192;28;19908;-68
2023/01/21 16:28:10;;;;;;;;;;;;;;;;;;5096655;28;19908;-69
2023/01/21 16:30:36;;;;;;;;;;;;;;;;;;5095795;28;19908;-68
2023/01/21 16:33:02;;;;;;;;;;;;;;;;;;5095592;28;19965;-68
2023/01/21 16:35:28;;;;;;;;;;;;;;;;;;5096627;28;19908;-68
2023/01/21 16:37:55;;;;;;;;;;;;;;;;;;5097256;28;20414;-68
2023/01/21 16:40:21;;;;;;;;;;;;;;;;;;5095623;28;19920;-68